sensor_id;sensor_type;location;lat;lon;timestamp;pressure;altitude;pressure_sealevel;temperature;humidity
19590;BME280;12231;42.782;23.388;2023-07-13T00:00:38;95749.56;;;24.70;83.33
19590;BME280;12231;42.782;23.388;2023-07-13T00:03:04;95760.28;;;24.68;83.21
19590;BME280;12231;42.782;23.388;2023-07-13T00:05:30;95760.28;;;24.68;83.01
19590;BME280;12231;42.782;23.388;2023-07-13T00:07:56;95758.47;;;24.69;83.07
19590;BME280;12231;42.782;23.388;2023-07-13T00:10:22;95760.78;;;24.64;83.22
19590;BME280;12231;42.782;23.388;2023-07-13T00:12:47;95758.81;;;24.58;83.36
19590;BME280;12231;42.782;23.388;2023-07-13T00:15:16;95760.84;;;24.56;83.54
19590;BME280;12231;42.782;23.388;2023-07-13T00:17:42;95761.81;;;24.55;83.65
19590;BME280;12231;42.782;23.388;2023-07-13T00:20:11;95750.28;;;24.56;83.49
19590;BME280;12231;42.782;23.388;2023-07-13T00:22:37;95746.63;;;24.57;83.48
19590;BME280;12231;42.782;23.388;2023-07-13T00:25:02;95745.63;;;24.58;83.51
19590;BME280;12231;42.782;23.388;2023-07-13T00:27:28;95740.06;;;24.53;83.43
19590;BME280;12231;42.782;23.388;2023-07-13T00:29:57;95747.50;;;24.49;83.53
19590;BME280;12231;42.782;23.388;2023-07-13T00:32:22;95744.41;;;24.46;83.92
19590;BME280;12231;42.782;23.388;2023-07-13T00:34:50;95737.13;;;24.48;83.79
19590;BME280;12231;42.782;23.388;2023-07-13T00:37:16;95741.75;;;24.46;84.03
19590;BME280;12231;42.782;23.388;2023-07-13T00:39:41;95742.06;;;24.51;83.82
19590;BME280;12231;42.782;23.388;2023-07-13T00:42:06;95737.59;;;24.51;83.82
19590;BME280;12231;42.782;23.388;2023-07-13T00:44:32;95738.28;;;24.45;84.18
19590;BME280;12231;42.782;23.388;2023-07-13T00:46:58;95737.81;;;24.42;84.32
19590;BME280;12231;42.782;23.388;2023-07-13T00:49:25;95741.09;;;24.44;84.21
19590;BME280;12231;42.782;23.388;2023-07-13T00:52:01;95735.88;;;24.35;84.70
19590;BME280;12231;42.782;23.388;2023-07-13T00:54:36;95734.25;;;24.34;84.99
19590;BME280;12231;42.782;23.388;2023-07-13T00:57:07;95730.59;;;24.35;84.77
19590;BME280;12231;42.782;23.388;2023-07-13T00:59:35;95731.59;;;24.34;84.81
19590;BME280;12231;42.782;23.388;2023-07-13T01:02:02;95736.72;;;24.36;84.29
19590;BME280;12231;42.782;23.388;2023-07-13T01:04:28;95735.09;;;24.27;84.95
19590;BME280;12231;42.782;23.388;2023-07-13T01:06:54;95735.75;;;24.29;84.64
19590;BME280;12231;42.782;23.388;2023-07-13T01:09:20;95736.75;;;24.28;84.18
19590;BME280;12231;42.782;23.388;2023-07-13T01:11:46;95733.44;;;24.26;84.21
19590;BME280;12231;42.782;23.388;2023-07-13T01:14:13;95736.25;;;24.24;84.01
19590;BME280;12231;42.782;23.388;2023-07-13T01:16:40;95737.91;;;24.17;84.34
19590;BME280;12231;42.782;23.388;2023-07-13T01:19:37;95734.81;;;24.14;84.50
19590;BME280;12231;42.782;23.388;2023-07-13T01:22:15;95740.28;;;23.96;85.17
19590;BME280;12231;42.782;23.388;2023-07-13T01:24:44;95732.81;;;23.53;86.62
19590;BME280;12231;42.782;23.388;2023-07-13T01:27:11;95738.19;;;22.87;89.64
19590;BME280;12231;42.782;23.388;2023-07-13T01:29:38;95742.25;;;22.58;91.13
19590;BME280;12231;42.782;23.388;2023-07-13T01:32:14;95746.69;;;22.16;94.13
19590;BME280;12231;42.782;23.388;2023-07-13T01:34:40;95746.00;;;22.14;94.63
19590;BME280;12231;42.782;23.388;2023-07-13T01:37:10;95735.59;;;22.38;95.87
19590;BME280;12231;42.782;23.388;2023-07-13T01:39:36;95737.63;;;22.52;96.21
19590;BME280;12231;42.782;23.388;2023-07-13T01:42:03;95739.63;;;22.66;95.78
19590;BME280;12231;42.782;23.388;2023-07-13T01:44:28;95722.41;;;22.79;94.66
19590;BME280;12231;42.782;23.388;2023-07-13T01:46:53;95724.72;;;22.82;93.39
19590;BME280;12231;42.782;23.388;2023-07-13T01:49:19;95728.97;;;22.75;92.23
19590;BME280;12231;42.782;23.388;2023-07-13T01:51:44;95734.41;;;22.74;92.35
19590;BME280;12231;42.782;23.388;2023-07-13T01:54:10;95735.72;;;22.62;92.91
19590;BME280;12231;42.782;23.388;2023-07-13T01:56:35;95733.78;;;22.80;92.41
19590;BME280;12231;42.782;23.388;2023-07-13T01:59:01;95733.13;;;22.94;91.84
19590;BME280;12231;42.782;23.388;2023-07-13T02:01:26;95739.38;;;23.09;90.88
19590;BME280;12231;42.782;23.388;2023-07-13T02:03:51;95736.59;;;23.19;90.13
19590;BME280;12231;42.782;23.388;2023-07-13T02:06:17;95742.81;;;23.26;89.67
19590;BME280;12231;42.782;23.388;2023-07-13T02:08:43;95743.34;;;23.29;89.27
19590;BME280;12231;42.782;23.388;2023-07-13T02:11:08;95739.84;;;23.04;89.44
19590;BME280;12231;42.782;23.388;2023-07-13T02:13:34;95748.38;;;22.74;89.53
19590;BME280;12231;42.782;23.388;2023-07-13T02:16:00;95745.03;;;22.56;90.76
19590;BME280;12231;42.782;23.388;2023-07-13T02:18:25;95753.78;;;22.65;91.10
19590;BME280;12231;42.782;23.388;2023-07-13T02:20:51;95745.41;;;22.77;90.13
19590;BME280;12231;42.782;23.388;2023-07-13T02:23:16;95747.56;;;22.82;89.10
19590;BME280;12231;42.782;23.388;2023-07-13T02:25:42;95753.34;;;22.44;88.90
19590;BME280;12231;42.782;23.388;2023-07-13T02:28:07;95752.00;;;22.40;89.71
19590;BME280;12231;42.782;23.388;2023-07-13T02:30:34;95750.91;;;22.42;89.96
19590;BME280;12231;42.782;23.388;2023-07-13T02:33:00;95750.47;;;22.55;91.79
19590;BME280;12231;42.782;23.388;2023-07-13T02:35:25;95752.28;;;22.62;91.58
19590;BME280;12231;42.782;23.388;2023-07-13T02:37:51;95757.09;;;22.75;90.93
19590;BME280;12231;42.782;23.388;2023-07-13T02:40:16;95753.47;;;22.76;90.54
19590;BME280;12231;42.782;23.388;2023-07-13T02:42:42;95761.06;;;22.37;93.90
19590;BME280;12231;42.782;23.388;2023-07-13T02:45:08;95762.63;;;22.64;92.88
19590;BME280;12231;42.782;23.388;2023-07-13T02:47:34;95765.44;;;22.70;92.37
19590;BME280;12231;42.782;23.388;2023-07-13T02:50:00;95762.88;;;22.94;91.03
19590;BME280;12231;42.782;23.388;2023-07-13T02:52:26;95758.13;;;23.06;89.95
19590;BME280;12231;42.782;23.388;2023-07-13T02:54:52;95760.09;;;23.12;89.29
19590;BME280;12231;42.782;23.388;2023-07-13T02:57:17;95762.56;;;23.14;89.14
19590;BME280;12231;42.782;23.388;2023-07-13T02:59:43;95768.66;;;23.14;88.74
19590;BME280;12231;42.782;23.388;2023-07-13T03:02:08;95758.75;;;23.08;87.59
19590;BME280;12231;42.782;23.388;2023-07-13T03:04:36;95769.13;;;23.09;88.38
19590;BME280;12231;42.782;23.388;2023-07-13T03:07:02;95767.47;;;23.17;87.73
19590;BME280;12231;42.782;23.388;2023-07-13T03:09:27;95762.06;;;23.18;87.26
19590;BME280;12231;42.782;23.388;2023-07-13T03:11:54;95768.94;;;23.19;87.85
19590;BME280;12231;42.782;23.388;2023-07-13T03:14:20;95771.66;;;23.27;88.20
19590;BME280;12231;42.782;23.388;2023-07-13T03:16:46;95767.84;;;23.38;88.05
19590;BME280;12231;42.782;23.388;2023-07-13T03:19:11;95771.16;;;23.40;87.44
19590;BME280;12231;42.782;23.388;2023-07-13T03:21:37;95761.28;;;23.50;87.04
19590;BME280;12231;42.782;23.388;2023-07-13T03:24:02;95774.59;;;23.48;85.64
19590;BME280;12231;42.782;23.388;2023-07-13T03:26:28;95776.03;;;23.19;85.91
19590;BME280;12231;42.782;23.388;2023-07-13T03:28:53;95775.41;;;23.33;86.30
19590;BME280;12231;42.782;23.388;2023-07-13T03:31:21;95775.91;;;23.44;85.96
19590;BME280;12231;42.782;23.388;2023-07-13T03:33:47;95774.91;;;23.45;85.39
19590;BME280;12231;42.782;23.388;2023-07-13T03:36:19;95766.03;;;23.62;84.98
19590;BME280;12231;42.782;23.388;2023-07-13T03:38:46;95769.63;;;23.77;83.96
19590;BME280;12231;42.782;23.388;2023-07-13T03:41:13;95768.13;;;23.75;83.38
19590;BME280;12231;42.782;23.388;2023-07-13T03:43:39;95770.56;;;24.00;82.79
19590;BME280;12231;42.782;23.388;2023-07-13T03:46:04;95766.88;;;24.25;81.81
19590;BME280;12231;42.782;23.388;2023-07-13T03:48:30;95768.25;;;24.52;80.50
19590;BME280;12231;42.782;23.388;2023-07-13T03:50:55;95763.72;;;24.77;79.30
19590;BME280;12231;42.782;23.388;2023-07-13T03:53:20;95766.06;;;24.94;79.05
19590;BME280;12231;42.782;23.388;2023-07-13T03:55:46;95771.34;;;25.17;77.89
19590;BME280;12231;42.782;23.388;2023-07-13T04:00:54;95768.63;;;25.70;74.80
19590;BME280;12231;42.782;23.388;2023-07-13T04:03:20;95768.00;;;25.83;73.27
19590;BME280;12231;42.782;23.388;2023-07-13T04:05:46;95770.81;;;26.04;72.43
19590;BME280;12231;42.782;23.388;2023-07-13T04:08:12;95761.03;;;26.33;70.76
19590;BME280;12231;42.782;23.388;2023-07-13T04:10:37;95765.22;;;26.57;69.53
19590;BME280;12231;42.782;23.388;2023-07-13T04:13:04;95775.94;;;26.84;67.94
19590;BME280;12231;42.782;23.388;2023-07-13T04:15:30;95771.56;;;26.91;67.52
19590;BME280;12231;42.782;23.388;2023-07-13T04:17:56;95775.81;;;25.39;72.39
19590;BME280;12231;42.782;23.388;2023-07-13T04:20:22;95784.91;;;26.25;71.15
19590;BME280;12231;42.782;23.388;2023-07-13T04:22:47;95781.25;;;26.84;69.20
19590;BME280;12231;42.782;23.388;2023-07-13T04:25:13;95781.66;;;27.24;67.16
19590;BME280;12231;42.782;23.388;2023-07-13T04:27:38;95777.59;;;27.70;65.62
19590;BME280;12231;42.782;23.388;2023-07-13T04:30:05;95776.75;;;28.11;64.71
19590;BME280;12231;42.782;23.388;2023-07-13T04:32:31;95785.56;;;28.53;63.75
19590;BME280;12231;42.782;23.388;2023-07-13T04:34:57;95785.75;;;28.98;62.45
19590;BME280;12231;42.782;23.388;2023-07-13T04:37:27;95784.25;;;29.36;60.96
19590;BME280;12231;42.782;23.388;2023-07-13T04:39:52;95789.38;;;29.51;60.41
19590;BME280;12231;42.782;23.388;2023-07-13T04:42:18;95787.38;;;29.92;60.11
19590;BME280;12231;42.782;23.388;2023-07-13T04:44:51;95785.03;;;30.48;58.39
19590;BME280;12231;42.782;23.388;2023-07-13T04:47:17;95791.06;;;30.94;56.49
19590;BME280;12231;42.782;23.388;2023-07-13T04:49:43;95789.00;;;31.40;54.38
19590;BME280;12231;42.782;23.388;2023-07-13T04:52:09;95791.38;;;31.79;52.97
19590;BME280;12231;42.782;23.388;2023-07-13T04:54:35;95792.25;;;31.98;53.03
19590;BME280;12231;42.782;23.388;2023-07-13T04:57:00;95794.69;;;32.49;51.53
19590;BME280;12231;42.782;23.388;2023-07-13T04:59:26;95791.03;;;32.79;50.85
19590;BME280;12231;42.782;23.388;2023-07-13T05:01:51;95792.34;;;33.24;49.57
19590;BME280;12231;42.782;23.388;2023-07-13T05:04:17;95790.75;;;33.35;48.83
19590;BME280;12231;42.782;23.388;2023-07-13T05:06:42;95795.97;;;33.60;47.51
19590;BME280;12231;42.782;23.388;2023-07-13T05:09:08;95793.28;;;34.12;46.73
19590;BME280;12231;42.782;23.388;2023-07-13T05:11:33;95790.63;;;34.70;46.08
19590;BME280;12231;42.782;23.388;2023-07-13T05:13:59;95789.81;;;35.21;44.61
19590;BME280;12231;42.782;23.388;2023-07-13T05:16:27;95800.13;;;35.01;45.23
19590;BME280;12231;42.782;23.388;2023-07-13T05:18:52;95792.78;;;34.96;45.31
19590;BME280;12231;42.782;23.388;2023-07-13T05:21:18;95796.13;;;35.43;44.31
19590;BME280;12231;42.782;23.388;2023-07-13T05:23:43;95796.41;;;35.58;43.99
19590;BME280;12231;42.782;23.388;2023-07-13T05:26:09;95791.00;;;34.50;46.88
19590;BME280;12231;42.782;23.388;2023-07-13T05:28:34;95810.03;;;33.96;47.55
19590;BME280;12231;42.782;23.388;2023-07-13T05:31:00;95793.75;;;34.90;46.84
19590;BME280;12231;42.782;23.388;2023-07-13T05:33:26;95808.91;;;34.73;45.87
19590;BME280;12231;42.782;23.388;2023-07-13T05:35:52;95809.38;;;34.93;46.02
19590;BME280;12231;42.782;23.388;2023-07-13T05:38:18;95814.25;;;34.85;46.43
19590;BME280;12231;42.782;23.388;2023-07-13T05:40:44;95807.78;;;34.57;47.19
19590;BME280;12231;42.782;23.388;2023-07-13T05:43:09;95809.72;;;34.97;45.46
19590;BME280;12231;42.782;23.388;2023-07-13T05:45:35;95814.34;;;35.29;45.38
19590;BME280;12231;42.782;23.388;2023-07-13T05:48:00;95819.41;;;35.37;45.51
19590;BME280;12231;42.782;23.388;2023-07-13T05:50:26;95821.00;;;35.66;44.98
19590;BME280;12231;42.782;23.388;2023-07-13T05:52:52;95814.91;;;35.43;44.41
19590;BME280;12231;42.782;23.388;2023-07-13T05:55:18;95815.69;;;36.00;43.33
19590;BME280;12231;42.782;23.388;2023-07-13T05:57:43;95807.28;;;36.62;41.83
19590;BME280;12231;42.782;23.388;2023-07-13T06:00:09;95801.31;;;37.20;38.51
19590;BME280;12231;42.782;23.388;2023-07-13T06:02:35;95800.94;;;38.13;34.98
19590;BME280;12231;42.782;23.388;2023-07-13T06:05:00;95804.47;;;38.92;34.44
19590;BME280;12231;42.782;23.388;2023-07-13T06:07:26;95801.78;;;39.74;33.14
19590;BME280;12231;42.782;23.388;2023-07-13T06:09:51;95818.91;;;38.34;35.71
19590;BME280;12231;42.782;23.388;2023-07-13T06:12:17;95808.44;;;38.84;34.97
19590;BME280;12231;42.782;23.388;2023-07-13T06:14:42;95812.91;;;39.97;32.80
19590;BME280;12231;42.782;23.388;2023-07-13T06:17:08;95809.56;;;40.96;31.84
19590;BME280;12231;42.782;23.388;2023-07-13T06:19:34;95809.06;;;40.94;30.50
19590;BME280;12231;42.782;23.388;2023-07-13T06:21:59;95817.44;;;41.61;29.99
19590;BME280;12231;42.782;23.388;2023-07-13T06:24:25;95814.59;;;41.37;29.33
19590;BME280;12231;42.782;23.388;2023-07-13T06:26:50;95810.22;;;41.85;28.42
19590;BME280;12231;42.782;23.388;2023-07-13T06:29:16;95808.31;;;42.86;28.04
19590;BME280;12231;42.782;23.388;2023-07-13T06:31:42;95820.09;;;41.07;30.27
19590;BME280;12231;42.782;23.388;2023-07-13T06:34:07;95808.84;;;41.49;28.28
19590;BME280;12231;42.782;23.388;2023-07-13T06:36:33;95806.94;;;41.44;29.05
19590;BME280;12231;42.782;23.388;2023-07-13T06:38:58;95815.06;;;39.95;31.13
19590;BME280;12231;42.782;23.388;2023-07-13T06:41:24;95805.34;;;40.44;31.75
19590;BME280;12231;42.782;23.388;2023-07-13T06:43:51;95787.22;;;41.82;29.01
19590;BME280;12231;42.782;23.388;2023-07-13T06:46:17;95798.66;;;42.47;27.77
19590;BME280;12231;42.782;23.388;2023-07-13T06:48:43;95790.28;;;43.43;27.39
19590;BME280;12231;42.782;23.388;2023-07-13T06:51:08;95791.00;;;41.38;29.50
19590;BME280;12231;42.782;23.388;2023-07-13T06:53:34;95790.16;;;42.53;28.16
19590;BME280;12231;42.782;23.388;2023-07-13T06:55:59;95801.53;;;41.93;29.22
19590;BME280;12231;42.782;23.388;2023-07-13T06:58:25;95791.13;;;41.13;31.24
19590;BME280;12231;42.782;23.388;2023-07-13T07:00:52;95798.22;;;39.53;33.39
19590;BME280;12231;42.782;23.388;2023-07-13T07:03:17;95799.38;;;40.72;31.89
19590;BME280;12231;42.782;23.388;2023-07-13T07:05:43;95799.84;;;40.89;31.32
19590;BME280;12231;42.782;23.388;2023-07-13T07:08:08;95790.00;;;42.11;29.06
19590;BME280;12231;42.782;23.388;2023-07-13T07:10:34;95794.09;;;42.42;28.94
19590;BME280;12231;42.782;23.388;2023-07-13T07:13:00;95786.09;;;41.88;29.89
19590;BME280;12231;42.782;23.388;2023-07-13T07:15:26;95785.22;;;42.32;28.64
19590;BME280;12231;42.782;23.388;2023-07-13T07:17:52;95782.50;;;41.59;30.56
19590;BME280;12231;42.782;23.388;2023-07-13T07:20:17;95779.72;;;42.94;28.87
19590;BME280;12231;42.782;23.388;2023-07-13T07:22:43;95783.53;;;42.41;30.70
19590;BME280;12231;42.782;23.388;2023-07-13T07:25:08;95781.47;;;42.56;29.67
19590;BME280;12231;42.782;23.388;2023-07-13T07:27:33;95774.78;;;42.72;29.55
19590;BME280;12231;42.782;23.388;2023-07-13T07:29:59;95782.06;;;42.20;28.76
19590;BME280;12231;42.782;23.388;2023-07-13T07:32:25;95782.84;;;42.54;28.10
19590;BME280;12231;42.782;23.388;2023-07-13T07:34:50;95778.97;;;42.88;28.72
19590;BME280;12231;42.782;23.388;2023-07-13T07:37:16;95768.25;;;43.63;27.96
19590;BME280;12231;42.782;23.388;2023-07-13T07:39:43;95774.50;;;44.00;27.22
19590;BME280;12231;42.782;23.388;2023-07-13T07:42:08;95767.47;;;43.20;27.79
19590;BME280;12231;42.782;23.388;2023-07-13T07:44:34;95762.88;;;42.97;28.05
19590;BME280;12231;42.782;23.388;2023-07-13T07:47:00;95764.41;;;43.82;28.09
19590;BME280;12231;42.782;23.388;2023-07-13T07:49:26;95755.72;;;43.43;26.32
19590;BME280;12231;42.782;23.388;2023-07-13T07:51:52;95754.25;;;42.38;29.16
19590;BME280;12231;42.782;23.388;2023-07-13T07:54:17;95752.66;;;43.07;27.40
19590;BME280;12231;42.782;23.388;2023-07-13T07:56:43;95757.31;;;41.05;31.31
19590;BME280;12231;42.782;23.388;2023-07-13T07:59:09;95758.28;;;41.29;31.10
19590;BME280;12231;42.782;23.388;2023-07-13T08:01:35;95754.47;;;42.46;29.21
19590;BME280;12231;42.782;23.388;2023-07-13T08:04:01;95762.56;;;40.66;32.74
19590;BME280;12231;42.782;23.388;2023-07-13T08:06:26;95747.59;;;42.25;29.55
19590;BME280;12231;42.782;23.388;2023-07-13T08:08:52;95751.00;;;42.88;29.33
19590;BME280;12231;42.782;23.388;2023-07-13T08:11:17;95740.88;;;43.17;26.91
19590;BME280;12231;42.782;23.388;2023-07-13T08:13:43;95734.75;;;43.49;27.43
19590;BME280;12231;42.782;23.388;2023-07-13T08:16:09;95736.94;;;44.61;26.26
19590;BME280;12231;42.782;23.388;2023-07-13T08:18:34;95731.72;;;44.51;25.63
19590;BME280;12231;42.782;23.388;2023-07-13T08:21:06;95725.84;;;44.44;26.54
19590;BME280;12231;42.782;23.388;2023-07-13T08:23:33;95725.75;;;45.04;26.04
19590;BME280;12231;42.782;23.388;2023-07-13T08:25:59;95727.25;;;45.37;24.77
19590;BME280;12231;42.782;23.388;2023-07-13T08:28:27;95725.34;;;42.52;29.05
19590;BME280;12231;42.782;23.388;2023-07-13T08:30:52;95723.41;;;44.29;26.56
19590;BME280;12231;42.782;23.388;2023-07-13T08:33:19;95718.53;;;45.62;24.76
19590;BME280;12231;42.782;23.388;2023-07-13T08:35:48;95714.66;;;45.14;25.06
19590;BME280;12231;42.782;23.388;2023-07-13T08:38:15;95717.38;;;44.32;25.88
19590;BME280;12231;42.782;23.388;2023-07-13T08:40:41;95717.53;;;44.82;25.16
19590;BME280;12231;42.782;23.388;2023-07-13T08:43:15;95714.81;;;43.90;26.75
19590;BME280;12231;42.782;23.388;2023-07-13T08:45:55;95722.72;;;41.84;30.39
19590;BME280;12231;42.782;23.388;2023-07-13T08:48:34;95714.25;;;43.38;28.11
19590;BME280;12231;42.782;23.388;2023-07-13T08:51:09;95710.97;;;45.10;26.75
19590;BME280;12231;42.782;23.388;2023-07-13T08:53:49;95706.91;;;45.21;26.52
19590;BME280;12231;42.782;23.388;2023-07-13T08:56:27;95717.34;;;45.41;26.32
19590;BME280;12231;42.782;23.388;2023-07-13T08:58:56;95727.13;;;45.55;26.95
19590;BME280;12231;42.782;23.388;2023-07-13T09:06:58;95736.63;;;46.24;26.05
19590;BME280;12231;42.782;23.388;2023-07-13T09:09:48;95730.13;;;46.34;24.72
19590;BME280;12231;42.782;23.388;2023-07-13T09:12:34;95723.75;;;47.34;23.87
19590;BME280;12231;42.782;23.388;2023-07-13T09:15:03;95719.19;;;46.64;25.36
19590;BME280;12231;42.782;23.388;2023-07-13T09:17:41;95716.38;;;47.60;22.67
19590;BME280;12231;42.782;23.388;2023-07-13T09:20:27;95709.59;;;47.40;23.89
19590;BME280;12231;42.782;23.388;2023-07-13T09:22:56;95710.25;;;47.29;24.06
19590;BME280;12231;42.782;23.388;2023-07-13T09:25:29;95716.22;;;47.99;24.52
19590;BME280;12231;42.782;23.388;2023-07-13T09:27:59;95718.22;;;47.08;23.35
19590;BME280;12231;42.782;23.388;2023-07-13T09:33:21;95715.75;;;45.98;26.56
19590;BME280;12231;42.782;23.388;2023-07-13T09:35:46;95715.81;;;45.84;25.20
19590;BME280;12231;42.782;23.388;2023-07-13T09:38:13;95707.78;;;45.43;26.09
19590;BME280;12231;42.782;23.388;2023-07-13T09:44:10;95700.44;;;42.50;28.20
19590;BME280;12231;42.782;23.388;2023-07-13T09:46:37;95690.19;;;41.84;30.17
19590;BME280;12231;42.782;23.388;2023-07-13T09:49:03;95690.72;;;42.67;29.89
19590;BME280;12231;42.782;23.388;2023-07-13T09:51:28;95695.66;;;41.79;30.89
19590;BME280;12231;42.782;23.388;2023-07-13T09:53:54;95685.50;;;42.76;28.33
19590;BME280;12231;42.782;23.388;2023-07-13T09:56:26;95682.88;;;42.66;30.37
19590;BME280;12231;42.782;23.388;2023-07-13T09:58:52;95676.41;;;42.85;28.14
19590;BME280;12231;42.782;23.388;2023-07-13T10:01:32;95680.03;;;41.66;30.94
19590;BME280;12231;42.782;23.388;2023-07-13T10:03:58;95670.88;;;41.19;30.54
19590;BME280;12231;42.782;23.388;2023-07-13T10:06:24;95673.31;;;42.21;28.30
19590;BME280;12231;42.782;23.388;2023-07-13T10:08:52;95672.09;;;43.03;28.53
19590;BME280;12231;42.782;23.388;2023-07-13T10:11:20;95667.47;;;41.42;29.58
19590;BME280;12231;42.782;23.388;2023-07-13T10:14:14;95666.31;;;41.09;30.07
19590;BME280;12231;42.782;23.388;2023-07-13T10:16:41;95667.19;;;41.43;30.89
19590;BME280;12231;42.782;23.388;2023-07-13T10:19:24;95659.84;;;41.82;31.41
19590;BME280;12231;42.782;23.388;2023-07-13T10:24:32;95658.66;;;41.65;29.97
19590;BME280;12231;42.782;23.388;2023-07-13T10:29:34;95649.34;;;41.42;31.33
19590;BME280;12231;42.782;23.388;2023-07-13T10:32:02;95643.97;;;40.94;30.07
19590;BME280;12231;42.782;23.388;2023-07-13T10:34:28;95639.16;;;41.63;30.41
19590;BME280;12231;42.782;23.388;2023-07-13T10:36:54;95639.25;;;40.55;30.01
19590;BME280;12231;42.782;23.388;2023-07-13T10:39:24;95639.63;;;40.24;30.73
19590;BME280;12231;42.782;23.388;2023-07-13T10:41:58;95635.25;;;40.48;31.00
19590;BME280;12231;42.782;23.388;2023-07-13T10:44:30;95621.00;;;40.86;29.79
19590;BME280;12231;42.782;23.388;2023-07-13T10:46:58;95614.84;;;40.75;33.02
19590;BME280;12231;42.782;23.388;2023-07-13T10:49:27;95610.06;;;40.52;29.95
19590;BME280;12231;42.782;23.388;2023-07-13T10:51:53;95616.69;;;40.06;30.66
19590;BME280;12231;42.782;23.388;2023-07-13T10:54:19;95617.53;;;39.82;29.27
19590;BME280;12231;42.782;23.388;2023-07-13T10:56:53;95612.56;;;40.34;28.49
19590;BME280;12231;42.782;23.388;2023-07-13T10:59:24;95614.88;;;39.46;31.21
19590;BME280;12231;42.782;23.388;2023-07-13T11:02:05;95601.91;;;39.03;30.57
19590;BME280;12231;42.782;23.388;2023-07-13T11:04:48;95596.50;;;39.18;30.54
19590;BME280;12231;42.782;23.388;2023-07-13T11:09:52;95587.16;;;40.35;29.84
19590;BME280;12231;42.782;23.388;2023-07-13T11:17:51;95578.16;;;40.54;30.26
19590;BME280;12231;42.782;23.388;2023-07-13T11:20:32;95579.16;;;41.07;28.53
19590;BME280;12231;42.782;23.388;2023-07-13T11:25:34;95576.63;;;41.26;29.08
19590;BME280;12231;42.782;23.388;2023-07-13T11:30:40;95565.81;;;40.33;28.20
19590;BME280;12231;42.782;23.388;2023-07-13T11:36:07;95569.41;;;40.04;29.66
19590;BME280;12231;42.782;23.388;2023-07-13T11:38:40;95560.53;;;40.57;30.13
19590;BME280;12231;42.782;23.388;2023-07-13T11:41:19;95563.91;;;40.34;28.72
19590;BME280;12231;42.782;23.388;2023-07-13T11:43:45;95563.88;;;40.39;30.43
19590;BME280;12231;42.782;23.388;2023-07-13T11:46:15;95551.44;;;40.43;29.98
19590;BME280;12231;42.782;23.388;2023-07-13T11:48:48;95558.34;;;40.64;29.73
19590;BME280;12231;42.782;23.388;2023-07-13T11:51:23;95550.66;;;40.81;28.46
19590;BME280;12231;42.782;23.388;2023-07-13T11:53:52;95547.50;;;41.13;28.06
19590;BME280;12231;42.782;23.388;2023-07-13T11:56:18;95539.75;;;39.89;29.39
19590;BME280;12231;42.782;23.388;2023-07-13T11:58:48;95548.47;;;39.05;30.23
19590;BME280;12231;42.782;23.388;2023-07-13T12:01:23;95539.25;;;39.72;30.47
19590;BME280;12231;42.782;23.388;2023-07-13T12:03:50;95547.75;;;40.14;29.62
19590;BME280;12231;42.782;23.388;2023-07-13T12:06:27;95540.16;;;40.74;28.36
19590;BME280;12231;42.782;23.388;2023-07-13T12:09:01;95536.88;;;40.77;28.42
19590;BME280;12231;42.782;23.388;2023-07-13T12:11:29;95531.88;;;40.56;27.24
19590;BME280;12231;42.782;23.388;2023-07-13T12:13:54;95523.47;;;40.62;27.53
19590;BME280;12231;42.782;23.388;2023-07-13T12:16:30;95519.84;;;40.82;26.59
19590;BME280;12231;42.782;23.388;2023-07-13T12:18:58;95516.63;;;41.09;26.71
19590;BME280;12231;42.782;23.388;2023-07-13T12:21:33;95522.50;;;40.87;26.33
19590;BME280;12231;42.782;23.388;2023-07-13T12:24:00;95509.81;;;39.65;27.35
19590;BME280;12231;42.782;23.388;2023-07-13T12:26:28;95511.25;;;40.65;27.28
19590;BME280;12231;42.782;23.388;2023-07-13T12:28:55;95496.72;;;40.07;28.18
19590;BME280;12231;42.782;23.388;2023-07-13T12:31:26;95501.41;;;38.41;28.56
19590;BME280;12231;42.782;23.388;2023-07-13T12:36:35;95489.28;;;39.59;28.21
19590;BME280;12231;42.782;23.388;2023-07-13T12:39:28;95488.69;;;39.77;27.78
19590;BME280;12231;42.782;23.388;2023-07-13T12:41:52;95480.81;;;39.86;28.20
19590;BME280;12231;42.782;23.388;2023-07-13T12:44:29;95478.75;;;39.57;28.22
19590;BME280;12231;42.782;23.388;2023-07-13T12:47:05;95489.63;;;39.32;28.01
19590;BME280;12231;42.782;23.388;2023-07-13T12:49:41;95488.00;;;38.91;27.90
19590;BME280;12231;42.782;23.388;2023-07-13T12:52:19;95485.25;;;38.36;29.35
19590;BME280;12231;42.782;23.388;2023-07-13T12:54:57;95480.72;;;38.72;31.62
19590;BME280;12231;42.782;23.388;2023-07-13T12:57:23;95479.88;;;38.56;31.32
19590;BME280;12231;42.782;23.388;2023-07-13T12:59:52;95469.94;;;39.02;30.69
19590;BME280;12231;42.782;23.388;2023-07-13T13:02:33;95467.75;;;39.44;29.38
19590;BME280;12231;42.782;23.388;2023-07-13T13:05:01;95464.09;;;39.89;30.72
19590;BME280;12231;42.782;23.388;2023-07-13T13:07:28;95457.78;;;38.94;31.73
19590;BME280;12231;42.782;23.388;2023-07-13T13:09:54;95470.88;;;38.05;33.66
19590;BME280;12231;42.782;23.388;2023-07-13T13:12:22;95453.72;;;39.27;30.00
19590;BME280;12231;42.782;23.388;2023-07-13T13:14:48;95456.41;;;39.47;28.59
19590;BME280;12231;42.782;23.388;2023-07-13T13:17:23;95450.97;;;39.42;30.26
19590;BME280;12231;42.782;23.388;2023-07-13T13:19:51;95445.91;;;39.25;30.49
19590;BME280;12231;42.782;23.388;2023-07-13T13:22:19;95448.34;;;39.02;29.90
19590;BME280;12231;42.782;23.388;2023-07-13T13:24:45;95453.19;;;38.39;32.77
19590;BME280;12231;42.782;23.388;2023-07-13T13:27:18;95460.19;;;38.51;29.41
19590;BME280;12231;42.782;23.388;2023-07-13T13:29:45;95449.69;;;38.79;29.46
19590;BME280;12231;42.782;23.388;2023-07-13T13:32:14;95450.44;;;38.19;32.40